Time;durP1;ratioP1;P1;durP2;ratioP2;P2;SDS_P1;SDS_P2;PMS_P1;PMS_P2;Temp;Humidity;BMP_temperature;BMP_pressure;BME280_temperature;BME280_humidity;BME280_pressure;Samples;Min_cycle;Max_cycle;Signal;HPM_P1;HPM_P2
2023/12/19 00:01:48;;;;;;;;;;;16.90;55.10;;;;;;5078274;28;43009;-81
2023/12/19 00:04:15;;;;;;;;;;;16.90;55.00;;;;;;5051126;28;44160;-81
2023/12/19 00:06:41;;;;;;;;;;;16.80;55.50;;;;;;5064872;28;42999;-81
2023/12/19 00:09:06;;;;;;;;;;;16.80;55.90;;;;;;5054589;28;42917;-80
2023/12/19 00:11:33;;;;;;;;;;;16.90;56.70;;;;;;5048078;28;42943;-81
2023/12/19 00:13:59;;;;;;;;;;;16.80;56.90;;;;;;5067468;28;43517;-81
2023/12/19 00:18:59;;;;;;;;;;;17.00;53.80;;;;;;5258682;22;43060;-81
2023/12/19 00:21:25;;;;;;;;;;;16.90;54.60;;;;;;5056430;28;42967;-81
2023/12/19 00:23:50;;;;;;;;;;;16.90;54.60;;;;;;5057235;28;43901;-81
2023/12/19 00:26:16;;;;;;;;;;;16.90;54.70;;;;;;5057842;28;42955;-81
2023/12/19 00:28:43;;;;;;;;;;;16.80;54.70;;;;;;5056032;28;43346;-81
2023/12/19 00:31:17;;;;;;;;;;;16.90;54.10;;;;;;5049240;28;42962;-81
2023/12/19 00:33:42;;;;;;;;;;;16.90;54.10;;;;;;5067998;28;43674;-81
2023/12/19 00:36:08;;;;;;;;;;;16.80;54.70;;;;;;5067832;28;42989;-81
2023/12/19 00:38:33;;;;;;;;;;;16.90;54.10;;;;;;5067397;28;43628;-81
2023/12/19 00:40:59;;;;;;;;;;;16.90;54.50;;;;;;5067272;28;42966;-81
2023/12/19 00:43:24;;;;;;;;;;;16.80;54.00;;;;;;5049341;28;43456;-81
2023/12/19 00:45:50;;;;;;;;;;;17.00;54.90;;;;;;5067763;28;42922;-81
2023/12/19 00:48:15;;;;;;;;;;;16.90;54.10;;;;;;5068271;28;43447;-81
2023/12/19 00:50:41;;;;;;;;;;;16.90;54.10;;;;;;5068010;28;43215;-81
2023/12/19 01:08:41;;;;;;;;;;;17.20;53.30;;;;;;5335987;22;42863;-82
2023/12/19 01:11:09;;;;;;;;;;;17.00;53.90;;;;;;5068059;28;43067;-81
2023/12/19 01:13:35;;;;;;;;;;;16.90;54.50;;;;;;5067443;28;43405;-82
2023/12/19 01:16:00;;;;;;;;;;;16.90;54.60;;;;;;5067642;28;42921;-81
2023/12/19 01:18:26;;;;;;;;;;;16.90;54.70;;;;;;5067857;28;43680;-81
2023/12/19 01:20:51;;;;;;;;;;;16.90;54.90;;;;;;5067999;28;42956;-82
2023/12/19 01:23:17;;;;;;;;;;;16.80;55.30;;;;;;5068266;28;42771;-81
2023/12/19 01:25:43;;;;;;;;;;;16.90;54.90;;;;;;5067731;28;42996;-81
2023/12/19 01:28:09;;;;;;;;;;;16.90;55.00;;;;;;5048505;28;45085;-82
2023/12/19 01:30:35;;;;;;;;;;;16.70;55.50;;;;;;5066402;28;42961;-81
2023/12/19 01:33:00;;;;;;;;;;;16.80;55.10;;;;;;5066695;28;43370;-82
2023/12/19 01:35:26;;;;;;;;;;;16.80;55.20;;;;;;5067242;28;42769;-82
2023/12/19 01:37:51;;;;;;;;;;;16.80;55.10;;;;;;5067665;28;42891;-81
2023/12/19 01:40:17;;;;;;;;;;;16.80;55.60;;;;;;5067330;28;42977;-81
2023/12/19 01:42:42;;;;;;;;;;;16.80;54.60;;;;;;5067162;28;43619;-82
2023/12/19 01:45:09;;;;;;;;;;;16.80;54.60;;;;;;5066509;28;42903;-82
2023/12/19 01:47:36;;;;;;;;;;;16.80;54.90;;;;;;5067351;28;43018;-82
2023/12/19 01:50:02;;;;;;;;;;;16.90;54.90;;;;;;5067305;28;43025;-82
2023/12/19 01:52:28;;;;;;;;;;;16.90;54.80;;;;;;5067026;28;43742;-82
2023/12/19 01:54:54;;;;;;;;;;;16.80;55.30;;;;;;5066858;28;42861;-82
2023/12/19 01:57:20;;;;;;;;;;;16.90;55.10;;;;;;5067491;28;42821;-82
2023/12/19 01:59:48;;;;;;;;;;;16.90;55.30;;;;;;5065750;28;42716;-81
2023/12/19 02:02:14;;;;;;;;;;;16.90;55.00;;;;;;5065811;28;43558;-82
2023/12/19 02:04:39;;;;;;;;;;;16.80;55.10;;;;;;5066945;28;43033;-82
2023/12/19 02:07:05;;;;;;;;;;;16.80;55.60;;;;;;5066504;28;43452;-82
2023/12/19 02:09:32;;;;;;;;;;;16.70;55.60;;;;;;5066230;28;42917;-81
2023/12/19 02:11:58;;;;;;;;;;;16.80;55.50;;;;;;5066729;28;43069;-82
2023/12/19 02:14:24;;;;;;;;;;;16.70;55.90;;;;;;5066347;28;42904;-81
2023/12/19 02:16:49;;;;;;;;;;;16.80;55.30;;;;;;5079181;28;43731;-82
2023/12/19 02:19:15;;;;;;;;;;;16.90;55.60;;;;;;5078216;28;42970;-81
2023/12/19 02:21:40;;;;;;;;;;;16.70;56.10;;;;;;5072071;28;42930;-82
2023/12/19 02:24:07;;;;;;;;;;;16.80;55.80;;;;;;5066879;28;42866;-82
2023/12/19 02:26:33;;;;;;;;;;;16.80;55.80;;;;;;5066524;28;43535;-82
2023/12/19 02:28:59;;;;;;;;;;;16.90;56.20;;;;;;5066093;28;42890;-82
2023/12/19 02:31:24;;;;;;;;;;;16.90;55.60;;;;;;5065453;28;43552;-81
2023/12/19 02:33:50;;;;;;;;;;;16.80;56.30;;;;;;5066835;28;42932;-81
2023/12/19 02:57:02;;;;;;;;;;;;;;;;;;1425686;22;43490;-81
2023/12/19 02:59:28;;;;;;;;;;;17.00;53.00;;;;;;5064204;28;42942;-81
2023/12/19 03:01:53;;;;;;;;;;;17.00;53.80;;;;;;5065338;28;43818;-81
2023/12/19 03:04:20;;;;;;;;;;;16.90;53.80;;;;;;5065845;28;42915;-81
2023/12/19 03:06:45;;;;;;;;;;;16.90;54.10;;;;;;5066192;28;42977;-81
2023/12/19 03:09:11;;;;;;;;;;;16.90;53.90;;;;;;5065492;28;42918;-81
2023/12/19 03:11:39;;;;;;;;;;;16.90;53.90;;;;;;5064784;28;43511;-81
2023/12/19 03:14:05;;;;;;;;;;;16.80;53.80;;;;;;5065969;28;42958;-81
2023/12/19 03:16:31;;;;;;;;;;;16.90;54.10;;;;;;5067147;28;42941;-82
2023/12/19 03:18:56;;;;;;;;;;;16.90;54.00;;;;;;5065717;28;43034;-81
2023/12/19 03:21:22;;;;;;;;;;;16.80;54.00;;;;;;5068294;28;43017;-81
2023/12/19 03:23:47;;;;;;;;;;;16.90;53.50;;;;;;5057843;28;43094;-80
2023/12/19 03:26:13;;;;;;;;;;;16.80;54.10;;;;;;5048401;28;43594;-81
2023/12/19 03:28:38;;;;;;;;;;;16.30;53.30;;;;;;5049375;28;42895;-82
2023/12/19 03:31:04;;;;;;;;;;;16.80;53.50;;;;;;5048978;28;43108;-81
2023/12/19 03:33:30;;;;;;;;;;;16.80;53.60;;;;;;5048876;28;42950;-81
2023/12/19 03:35:56;;;;;;;;;;;16.80;53.80;;;;;;5360555;22;44376;-81
2023/12/19 03:38:21;;;;;;;;;;;16.90;54.00;;;;;;5049638;28;43065;-81
2023/12/19 03:40:47;;;;;;;;;;;16.70;54.00;;;;;;5050028;28;43646;-81
2023/12/19 03:43:12;;;;;;;;;;;16.80;54.80;;;;;;5068661;28;42850;-81
2023/12/19 03:45:38;;;;;;;;;;;16.90;54.30;;;;;;5069243;28;43687;-81
2023/12/19 03:48:04;;;;;;;;;;;16.90;54.30;;;;;;5068653;28;42922;-81
2023/12/19 03:50:29;;;;;;;;;;;16.80;54.40;;;;;;5068372;28;42915;-81
2023/12/19 03:52:54;;;;;;;;;;;16.90;54.60;;;;;;5068601;28;42875;-81
2023/12/19 03:55:20;;;;;;;;;;;16.90;54.70;;;;;;5068425;28;42914;-81
2023/12/19 03:57:45;;;;;;;;;;;16.90;55.20;;;;;;5068529;28;43018;-82
2023/12/19 04:00:12;;;;;;;;;;;17.00;54.70;;;;;;5068429;28;42943;-81
2023/12/19 04:02:38;;;;;;;;;;;16.80;54.80;;;;;;5049896;28;42917;-82
2023/12/19 04:07:39;;;;;;;;;;;16.90;53.70;;;;;;5400168;22;43054;-81
2023/12/19 04:10:05;;;;;;;;;;;16.90;54.50;;;;;;5067964;28;42847;-81
2023/12/19 04:12:30;;;;;;;;;;;16.80;54.00;;;;;;5068333;28;42993;-81
2023/12/19 04:14:56;;;;;;;;;;;16.80;54.90;;;;;;5067819;28;43436;-81
2023/12/19 04:17:21;;;;;;;;;;;16.80;54.40;;;;;;5068163;28;42898;-81
2023/12/19 04:19:47;;;;;;;;;;;16.80;54.90;;;;;;5067813;28;42934;-81
2023/12/19 04:22:12;;;;;;;;;;;16.80;54.70;;;;;;5068677;28;43055;-81
2023/12/19 04:35:01;;;;;;;;;;;17.00;54.50;;;;;;5136429;22;43005;-81
2023/12/19 04:37:27;;;;;;;;;;;17.00;56.20;;;;;;5054661;28;43048;-81
2023/12/19 04:39:52;;;;;;;;;;;;;;;;;;5048461;28;44058;-82
2023/12/19 04:42:18;;;;;;;;;;;16.90;57.60;;;;;;5048927;28;42754;-81
2023/12/19 04:44:44;;;;;;;;;;;;;;;;;;5048674;28;43570;-82
2023/12/19 04:47:10;;;;;;;;;;;17.10;57.50;;;;;;5046600;28;42863;-82
2023/12/19 04:49:36;;;;;;;;;;;17.00;57.60;;;;;;5047963;28;43550;-82
2023/12/19 04:52:01;;;;;;;;;;;17.00;56.90;;;;;;5048303;28;42851;-81
2023/12/19 04:54:27;;;;;;;;;;;17.00;55.90;;;;;;5047402;28;42856;-81
2023/12/19 04:56:52;;;;;;;;;;;16.90;57.40;;;;;;5047827;28;42927;-82
2023/12/19 04:59:18;;;;;;;;;;;16.80;57.60;;;;;;5047695;28;43534;-81
2023/12/19 05:06:55;;;;;;;;;;;17.00;53.80;;;;;;5873217;22;43582;-80
2023/12/19 05:09:21;;;;;;;;;;;16.90;54.00;;;;;;5067314;28;42894;-81
2023/12/19 05:11:46;;;;;;;;;;;16.70;54.80;;;;;;5067541;28;43021;-81
2023/12/19 05:14:12;;;;;;;;;;;17.00;55.70;;;;;;5066310;28;43538;-81
2023/12/19 05:19:13;;;;;;;;;;;16.80;53.30;;;;;;5708227;22;43629;-81
2023/12/19 05:21:38;;;;;;;;;;;16.90;53.60;;;;;;5067748;28;43093;-81
2023/12/19 05:24:04;;;;;;;;;;;16.80;53.80;;;;;;5049580;28;42975;-81
2023/12/19 05:26:30;;;;;;;;;;;16.80;55.00;;;;;;5049783;28;43007;-81
2023/12/19 05:28:55;;;;;;;;;;;16.70;55.70;;;;;;5065289;28;43010;-81
2023/12/19 05:31:46;;;;;;;;;;;16.80;54.00;;;;;;5066753;28;42962;-81
2023/12/19 05:34:11;;;;;;;;;;;16.80;55.60;;;;;;5047302;28;44147;-81
2023/12/19 05:36:37;;;;;;;;;;;16.70;54.90;;;;;;5066161;28;42880;-81
2023/12/19 05:55:45;;;;;;;;;;;16.90;53.90;;;;;;5270165;22;44038;-81
2023/12/19 05:58:10;;;;;;;;;;;16.80;54.50;;;;;;5065507;28;42972;-80
2023/12/19 06:00:55;;;;;;;;;;;16.80;53.90;;;;;;5056988;28;43038;-81
2023/12/19 06:03:24;;;;;;;;;;;16.90;52.20;;;;;;5059538;28;43141;-81
2023/12/19 06:05:49;;;;;;;;;;;16.80;54.00;;;;;;5062459;28;43436;-81
2023/12/19 06:08:18;;;;;;;;;;;16.90;54.80;;;;;;5064457;28;44113;-81
2023/12/19 06:10:52;;;;;;;;;;;16.70;51.70;;;;;;5064160;28;43055;-81
2023/12/19 06:13:23;;;;;;;;;;;;;;;;;;5044964;28;43073;-82
2023/12/19 06:18:24;;;;;;;;;;;16.80;52.10;;;;;;5201881;22;42832;-82
2023/12/19 06:20:50;;;;;;;;;;;16.80;52.50;;;;;;5043869;28;44092;-81
2023/12/19 06:26:32;;;;;;;;;;;16.80;52.20;;;;;;4948884;28;44491;-81
2023/12/19 06:28:57;;;;;;;;;;;16.70;52.40;;;;;;4949602;28;42800;-81
2023/12/19 06:34:43;;;;;;;;;;;16.70;51.00;;;;;;4903176;29;43061;-82
2023/12/19 06:37:11;;;;;;;;;;;16.70;52.00;;;;;;4932932;28;45202;-81
2023/12/19 06:39:36;;;;;;;;;;;16.60;52.70;;;;;;4942853;28;43050;-81
2023/12/19 06:42:05;;;;;;;;;;;;;;;;;;4951485;28;44675;-88
2023/12/19 06:47:28;;;;;;;;;;;16.90;52.40;;;;;;5762244;22;43323;-81
2023/12/19 06:49:53;;;;;;;;;;;16.90;52.70;;;;;;5055517;28;43048;-82
2023/12/19 06:52:19;;;;;;;;;;;16.90;53.90;;;;;;5072854;28;43490;-81
2023/12/19 06:54:46;;;;;;;;;;;16.70;53.90;;;;;;5066656;28;43681;-81
2023/12/19 06:57:11;;;;;;;;;;;16.80;53.90;;;;;;5062986;28;43805;-81
2023/12/19 06:59:37;;;;;;;;;;;16.80;51.30;;;;;;5463192;22;43137;-80
2023/12/19 07:02:03;;;;;;;;;;;16.70;51.30;;;;;;5043783;28;44300;-82
2023/12/19 07:09:50;;;;;;;;;;;16.70;52.30;;;;;;5069058;22;43053;-84
2023/12/19 08:13:05;;;;;;;;;;;15.90;41.80;;;;;;5126536;22;42918;-82
2023/12/19 08:15:30;;;;;;;;;;;15.80;42.30;;;;;;5048025;28;43583;-81
2023/12/19 08:17:56;;;;;;;;;;;15.60;42.80;;;;;;5066058;28;43025;-85
2023/12/19 08:23:07;;;;;;;;;;;15.70;42.60;;;;;;5073390;22;43218;-87
2023/12/19 08:44:09;;;;;;;;;;;15.60;42.40;;;;;;5621283;22;43471;-82
2023/12/19 08:46:34;;;;;;;;;;;15.50;43.40;;;;;;5068492;28;42922;-82
2023/12/19 08:49:01;;;;;;;;;;;15.40;43.20;;;;;;5067816;28;43112;-82
2023/12/19 08:51:26;;;;;;;;;;;15.40;43.30;;;;;;5050121;28;45656;-83
2023/12/19 09:04:43;;;;;;;;;;;15.70;43.20;;;;;;5291305;22;44206;-83
2023/12/19 09:07:08;;;;;;;;;;;15.60;43.80;;;;;;5075789;28;43477;-83
2023/12/19 09:09:34;;;;;;;;;;;15.40;44.20;;;;;;5068452;28;42864;-83
2023/12/19 09:11:59;;;;;;;;;;;15.70;44.70;;;;;;5067443;28;43973;-83
2023/12/19 09:14:25;;;;;;;;;;;15.60;45.10;;;;;;5067018;28;42806;-83
2023/12/19 09:16:50;;;;;;;;;;;15.40;45.50;;;;;;5067250;28;43900;-83
2023/12/19 09:19:17;;;;;;;;;;;15.60;46.00;;;;;;5066449;28;42888;-82
2023/12/19 09:21:43;;;;;;;;;;;15.70;46.10;;;;;;5068757;28;43591;-83
2023/12/19 09:55:17;;;;;;;;;;;;;;;;;;6211543;22;42979;-84
2023/12/19 09:57:44;;;;;;;;;;;15.80;47.70;;;;;;5065989;28;43868;-83
2023/12/19 10:00:09;;;;;;;;;;;15.80;46.20;;;;;;5067619;28;42847;-83
2023/12/19 10:02:36;;;;;;;;;;;15.90;47.60;;;;;;5048938;28;44597;-83
2023/12/19 10:05:02;;;;;;;;;;;16.00;50.00;;;;;;5049229;28;43093;-83
2023/12/19 10:07:29;;;;;;;;;;;16.10;49.70;;;;;;5068873;28;42772;-84
2023/12/19 10:09:57;;;;;;;;;;;;;;;;;;5068613;28;42887;-82
2023/12/19 10:12:27;;;;;;;;;;;;;;;;;;5067429;28;43324;-84
2023/12/19 10:15:20;;;;;;;;;;;15.80;49.20;;;;;;5067873;28;42966;-83
2023/12/19 10:18:04;;;;;;;;;;;15.90;48.50;;;;;;5064301;28;43675;-82
2023/12/19 10:20:30;;;;;;;;;;;;;;;;;;5068443;28;42907;-83
2023/12/19 10:23:03;;;;;;;;;;;15.90;48.00;;;;;;5068692;28;43803;-83
2023/12/19 10:25:29;;;;;;;;;;;;;;;;;;5068035;28;42789;-83
2023/12/19 10:27:54;;;;;;;;;;;;;;;;;;5067755;28;43987;-83
2023/12/19 10:30:21;;;;;;;;;;;16.10;48.50;;;;;;5067114;28;42969;-83
2023/12/19 10:32:47;;;;;;;;;;;;;;;;;;5066274;28;43567;-82
2023/12/19 10:35:12;;;;;;;;;;;15.90;48.20;;;;;;5067789;28;43024;-82
2023/12/19 10:37:38;;;;;;;;;;;16.00;47.40;;;;;;5068088;28;43338;-83
2023/12/19 10:40:05;;;;;;;;;;;;;;;;;;5067706;28;42805;-82
2023/12/19 10:56:24;;;;;;;;;;;15.90;41.80;;;;;;5065245;28;42850;-81
2023/12/19 10:58:57;;;;;;;;;;;16.10;41.90;;;;;;5066937;28;43568;-82
2023/12/19 11:01:24;;;;;;;;;;;15.90;42.00;;;;;;5048486;28;43060;-82
2023/12/19 11:03:53;;;;;;;;;;;16.00;42.00;;;;;;5066714;28;42825;-82
2023/12/19 11:06:22;;;;;;;;;;;15.80;42.20;;;;;;5066409;28;42923;-82
2023/12/19 11:08:49;;;;;;;;;;;15.80;42.20;;;;;;5048909;28;44454;-82
2023/12/19 11:11:20;;;;;;;;;;;15.80;42.20;;;;;;5067322;28;42883;-82
2023/12/19 11:13:46;;;;;;;;;;;15.80;41.80;;;;;;5066916;28;42987;-82
2023/12/19 11:16:15;;;;;;;;;;;15.90;42.00;;;;;;5066175;28;42868;-81
2023/12/19 11:19:10;;;;;;;;;;;15.90;42.70;;;;;;5072603;28;43669;-82
2023/12/19 11:21:46;;;;;;;;;;;15.80;42.40;;;;;;5060347;28;42884;-82
2023/12/19 11:24:18;;;;;;;;;;;16.00;42.90;;;;;;5072407;28;43076;-82
2023/12/19 11:26:43;;;;;;;;;;;15.90;44.00;;;;;;5048011;28;42900;-81
2023/12/19 11:29:29;;;;;;;;;;;15.80;43.30;;;;;;5065792;28;43130;-82
2023/12/19 11:31:54;;;;;;;;;;;15.80;43.10;;;;;;5046324;28;42825;-82
2023/12/19 11:34:21;;;;;;;;;;;16.00;43.90;;;;;;5066698;28;42938;-82
2023/12/19 11:36:47;;;;;;;;;;;15.80;43.90;;;;;;5066207;28;42892;-82
2023/12/19 11:39:26;;;;;;;;;;;15.90;44.40;;;;;;5066646;28;42863;-82
2023/12/19 11:41:51;;;;;;;;;;;15.90;43.80;;;;;;5067899;28;42836;-81
2023/12/19 11:52:45;;;;;;;;;;;16.20;41.00;;;;;;5013226;22;42844;-83
2023/12/19 11:55:21;;;;;;;;;;;15.90;42.00;;;;;;4987220;28;43734;-82
2023/12/19 11:57:47;;;;;;;;;;;15.80;42.30;;;;;;4987614;28;42994;-83
2023/12/19 12:00:13;;;;;;;;;;;15.80;43.10;;;;;;4987424;28;43097;-82
2023/12/19 12:02:39;;;;;;;;;;;16.00;43.20;;;;;;4987675;28;43056;-82
2023/12/19 12:05:08;;;;;;;;;;;15.90;43.60;;;;;;4987676;28;43434;-83
2023/12/19 12:07:38;;;;;;;;;;;15.90;43.60;;;;;;4987447;28;43004;-82
2023/12/19 12:10:06;;;;;;;;;;;15.90;43.80;;;;;;4987758;28;43007;-82
2023/12/19 12:12:32;;;;;;;;;;;15.90;43.90;;;;;;4987223;28;43005;-83
2023/12/19 12:15:05;;;;;;;;;;;15.80;43.70;;;;;;4985998;28;42989;-82
2023/12/19 12:17:32;;;;;;;;;;;16.00;44.00;;;;;;4986835;28;42955;-82
2023/12/19 12:19:57;;;;;;;;;;;16.00;44.30;;;;;;4987115;28;44784;-82
2023/12/19 12:22:24;;;;;;;;;;;16.00;44.30;;;;;;4985531;28;43140;-82
2023/12/19 12:24:53;;;;;;;;;;;16.00;44.60;;;;;;4985637;28;44472;-83
2023/12/19 12:27:19;;;;;;;;;;;15.80;44.60;;;;;;4986816;28;42965;-83
2023/12/19 12:29:45;;;;;;;;;;;16.10;44.20;;;;;;5047490;28;42972;-83
2023/12/19 12:37:22;;;;;;;;;;;16.10;42.40;;;;;;5904971;22;43008;-81
2023/12/19 12:39:47;;;;;;;;;;;16.20;42.80;;;;;;5050440;28;44544;-83
2023/12/19 12:42:19;;;;;;;;;;;16.00;43.30;;;;;;5069125;28;42839;-83
2023/12/19 12:44:44;;;;;;;;;;;16.10;43.30;;;;;;5068379;28;42870;-83
2023/12/19 12:47:10;;;;;;;;;;;15.60;43.20;;;;;;5068689;28;42949;-83
2023/12/19 12:49:37;;;;;;;;;;;16.00;43.80;;;;;;5067691;28;42953;-83
2023/12/19 12:52:04;;;;;;;;;;;16.10;44.40;;;;;;5067268;28;42835;-82
2023/12/19 12:54:30;;;;;;;;;;;16.00;44.40;;;;;;5066741;28;43713;-83
2023/12/19 12:56:56;;;;;;;;;;;15.80;44.50;;;;;;5068298;28;42854;-83
2023/12/19 12:59:23;;;;;;;;;;;15.90;44.60;;;;;;5066919;28;42938;-83
2023/12/19 13:01:49;;;;;;;;;;;16.20;44.90;;;;;;5067707;28;43087;-83
2023/12/19 13:04:17;;;;;;;;;;;16.00;44.50;;;;;;5067123;28;42941;-82
2023/12/19 13:06:43;;;;;;;;;;;16.00;44.50;;;;;;5067287;28;42986;-83
2023/12/19 13:09:19;;;;;;;;;;;15.90;44.90;;;;;;5049402;28;44899;-82
2023/12/19 13:14:21;;;;;;;;;;;16.20;42.50;;;;;;6116941;22;43397;-82
2023/12/19 13:16:47;;;;;;;;;;;16.30;43.00;;;;;;5066863;28;42862;-82
2023/12/19 13:19:14;;;;;;;;;;;16.10;42.80;;;;;;5067702;28;43024;-82
2023/12/19 13:21:40;;;;;;;;;;;16.00;43.20;;;;;;5068526;28;42905;-82
2023/12/19 13:24:07;;;;;;;;;;;16.00;43.20;;;;;;5066747;28;43442;-80
2023/12/19 13:26:32;;;;;;;;;;;16.00;43.90;;;;;;5067493;28;43051;-83
2023/12/19 13:29:01;;;;;;;;;;;15.90;44.90;;;;;;5049009;28;45810;-80
2023/12/19 13:31:29;;;;;;;;;;;16.10;43.20;;;;;;5067934;28;42949;-82
2023/12/19 13:33:54;;;;;;;;;;;16.20;45.00;;;;;;5066784;28;43282;-86
2023/12/19 13:36:21;;;;;;;;;;;16.00;44.90;;;;;;5072017;28;42903;-80
2023/12/19 13:38:47;;;;;;;;;;;16.00;44.20;;;;;;5063889;28;45290;-79
2023/12/19 13:41:15;;;;;;;;;;;16.00;44.10;;;;;;5077266;28;42716;-82
2023/12/19 13:43:40;;;;;;;;;;;16.10;45.20;;;;;;5056843;28;42867;-80
2023/12/19 13:46:06;;;;;;;;;;;16.10;45.70;;;;;;5045833;28;42965;-81
2023/12/19 13:48:31;;;;;;;;;;;16.20;46.10;;;;;;5045881;28;42936;-81
2023/12/19 13:50:57;;;;;;;;;;;15.90;46.40;;;;;;5046497;28;42976;-81
2023/12/19 13:53:23;;;;;;;;;;;;;;;;;;5045667;28;44389;-81
2023/12/19 13:55:48;;;;;;;;;;;16.10;46.60;;;;;;5047357;28;43053;-82
2023/12/19 13:58:15;;;;;;;;;;;16.10;46.70;;;;;;5027554;28;43438;-82
2023/12/19 14:00:40;;;;;;;;;;;16.10;46.90;;;;;;5047650;28;43075;-82
2023/12/19 14:03:06;;;;;;;;;;;16.10;46.80;;;;;;5046769;28;43009;-81
2023/12/19 14:05:31;;;;;;;;;;;16.30;46.90;;;;;;5046272;28;42810;-81
2023/12/19 14:07:57;;;;;;;;;;;16.40;47.00;;;;;;5046821;28;43350;-81
2023/12/19 14:10:24;;;;;;;;;;;16.30;47.20;;;;;;5046487;28;43345;-81
2023/12/19 14:12:50;;;;;;;;;;;16.20;47.10;;;;;;5047214;28;42892;-81
2023/12/19 14:15:16;;;;;;;;;;;16.30;46.70;;;;;;5046257;28;42951;-81
2023/12/19 14:17:42;;;;;;;;;;;16.30;47.00;;;;;;5045986;28;43518;-81
2023/12/19 14:20:08;;;;;;;;;;;16.40;47.30;;;;;;5045960;28;43042;-81
2023/12/19 14:22:34;;;;;;;;;;;16.30;47.50;;;;;;5027819;28;44432;-81
2023/12/19 14:24:59;;;;;;;;;;;16.40;47.80;;;;;;5046786;28;43591;-81
2023/12/19 14:27:25;;;;;;;;;;;16.10;47.70;;;;;;5046488;28;42798;-81
2023/12/19 14:35:04;;;;;;;;;;;16.40;44.90;;;;;;5347988;22;43073;-80
2023/12/19 14:37:31;;;;;;;;;;;16.40;45.60;;;;;;5066301;28;44019;-80
2023/12/19 14:39:56;;;;;;;;;;;16.50;45.50;;;;;;5066273;28;42961;-80
2023/12/19 14:42:22;;;;;;;;;;;16.60;45.70;;;;;;5048643;28;43594;-80
2023/12/19 14:44:47;;;;;;;;;;;16.40;46.20;;;;;;5066946;28;42697;-81
2023/12/19 14:47:16;;;;;;;;;;;16.40;46.30;;;;;;5066657;28;44277;-80
2023/12/19 14:49:41;;;;;;;;;;;16.60;46.60;;;;;;5066042;28;42989;-80
2023/12/19 15:03:14;;;;;;;;;;;16.50;46.20;;;;;;5065238;28;43130;-82
2023/12/19 15:11:45;;;;;;;;;;;16.40;46.40;;;;;;5064329;28;42860;-81
2023/12/19 15:17:14;;;;;;;;;;;16.50;46.30;;;;;;5062570;28;42894;-81
2023/12/19 15:25:47;;;;;;;;;;;16.60;47.30;;;;;;5065750;28;43159;-81
2023/12/19 15:28:15;;;;;;;;;;;16.60;47.50;;;;;;5066179;28;43176;-82
2023/12/19 15:30:41;;;;;;;;;;;16.40;47.40;;;;;;5047172;28;43420;-82
2023/12/19 15:33:06;;;;;;;;;;;16.60;47.70;;;;;;5066042;28;42721;-81
2023/12/19 15:35:32;;;;;;;;;;;16.60;48.10;;;;;;5065840;28;43441;-82
2023/12/19 15:37:57;;;;;;;;;;;16.50;47.70;;;;;;5066076;28;42767;-82
2023/12/19 15:40:23;;;;;;;;;;;16.50;48.20;;;;;;5065490;28;43035;-82
2023/12/19 15:43:13;;;;;;;;;;;16.70;48.10;;;;;;5066073;28;42848;-82
2023/12/19 15:49:31;;;;;;;;;;;16.60;48.50;;;;;;4982041;28;43004;-80
2023/12/19 15:51:56;;;;;;;;;;;16.70;48.90;;;;;;4968608;28;44739;-81
2023/12/19 15:54:22;;;;;;;;;;;16.50;48.60;;;;;;4998690;28;43133;-82
2023/12/19 15:56:47;;;;;;;;;;;16.70;48.50;;;;;;4968176;28;45256;-81
2023/12/19 15:59:13;;;;;;;;;;;16.60;49.10;;;;;;4966291;28;42974;-81
2023/12/19 16:01:38;;;;;;;;;;;16.70;49.20;;;;;;4963530;28;42910;-82
2023/12/19 16:04:04;;;;;;;;;;;16.60;49.00;;;;;;4963551;28;43084;-81
2023/12/19 16:07:13;;;;;;;;;;;;;;;;;;;;;
2023/12/19 16:09:51;;;;;;;;;;;16.70;48.00;;;;;;4960633;28;67998;-81
2023/12/19 16:12:17;;;;;;;;;;;16.70;47.50;;;;;;4962792;28;42943;-81
2023/12/19 16:14:42;;;;;;;;;;;16.60;47.50;;;;;;4962594;28;43149;-82
2023/12/19 17:02:00;;;;;;;;;;;16.80;47.50;;;;;;5324274;22;44150;-81
2023/12/19 17:04:30;;;;;;;;;;;16.90;47.60;;;;;;5049531;28;44425;-81
2023/12/19 17:06:56;;;;;;;;;;;16.70;47.90;;;;;;5067571;28;43218;-81
2023/12/19 17:12:10;;;;;;;;;;;16.80;48.30;;;;;;5074166;22;42827;-82
2023/12/19 17:14:50;;;;;;;;;;;16.60;48.50;;;;;;5049205;28;44581;-81
2023/12/19 17:17:22;;;;;;;;;;;16.60;48.60;;;;;;5066958;28;43024;-81
2023/12/19 17:19:47;;;;;;;;;;;16.50;48.70;;;;;;5067183;28;43237;-81
2023/12/19 17:22:13;;;;;;;;;;;16.70;48.70;;;;;;5066825;28;42826;-81
2023/12/19 17:24:38;;;;;;;;;;;16.70;48.80;;;;;;5066736;28;43596;-81
2023/12/19 17:27:06;;;;;;;;;;;16.60;48.50;;;;;;5066513;28;60647;-81
2023/12/19 17:29:51;;;;;;;;;;;16.70;48.80;;;;;;5067285;28;42953;-81
2023/12/19 17:32:17;;;;;;;;;;;16.60;48.90;;;;;;5066330;28;43055;-81
2023/12/19 17:34:51;;;;;;;;;;;16.70;49.10;;;;;;5066831;28;43619;-81
2023/12/19 17:37:23;;;;;;;;;;;16.70;49.40;;;;;;5048322;28;43025;-81
2023/12/19 17:39:48;;;;;;;;;;;16.60;49.50;;;;;;5066508;28;42908;-81
2023/12/19 17:42:23;;;;;;;;;;;16.70;49.70;;;;;;5066343;28;43065;-81
2023/12/19 17:44:51;;;;;;;;;;;16.70;49.50;;;;;;5066323;28;44642;-81
2023/12/19 17:47:19;;;;;;;;;;;16.70;49.70;;;;;;5066364;28;43254;-81
2023/12/19 17:49:45;;;;;;;;;;;16.50;49.80;;;;;;5065866;28;43618;-81
2023/12/19 17:59:48;;;;;;;;;;;16.90;47.70;;;;;;5776104;22;44493;-80
2023/12/19 18:02:13;;;;;;;;;;;16.80;48.10;;;;;;5068247;28;43025;-81
2023/12/19 18:04:38;;;;;;;;;;;16.90;48.20;;;;;;5067294;28;42997;-81
2023/12/19 18:10:07;;;;;;;;;;;16.40;48.40;;;;;;5133918;22;42779;-81
2023/12/19 18:12:33;;;;;;;;;;;16.60;48.50;;;;;;5077781;28;42743;-82
2023/12/19 18:15:02;;;;;;;;;;;16.60;48.80;;;;;;5050384;28;44533;-81
2023/12/19 18:17:43;;;;;;;;;;;16.80;48.80;;;;;;5057095;28;43158;-84
2023/12/19 18:20:08;;;;;;;;;;;16.80;49.00;;;;;;5051338;28;43750;-83
2023/12/19 18:25:19;;;;;;;;;;;16.90;48.40;;;;;;5633479;22;44141;-83
2023/12/19 18:33:44;;;;;;;;;;;16.80;48.30;;;;;;5242534;22;43001;-84
2023/12/19 18:36:21;;;;;;;;;;;16.90;48.50;;;;;;5047424;28;44759;-83
2023/12/19 18:39:15;;;;;;;;;;;16.80;48.50;;;;;;5061319;28;43068;-81
2023/12/19 18:41:40;;;;;;;;;;;16.60;48.40;;;;;;5041698;28;44119;-82
2023/12/19 18:44:06;;;;;;;;;;;16.80;48.70;;;;;;5065057;28;43040;-82
2023/12/19 18:46:36;;;;;;;;;;;16.90;48.80;;;;;;5065589;28;43010;-82
2023/12/19 18:49:02;;;;;;;;;;;16.60;48.60;;;;;;5061502;28;42933;-83
2023/12/19 18:51:29;;;;;;;;;;;16.70;48.80;;;;;;5065224;28;43934;-84
2023/12/19 18:53:55;;;;;;;;;;;16.70;48.90;;;;;;5063231;28;42918;-84
2023/12/19 18:56:21;;;;;;;;;;;16.60;49.00;;;;;;5062212;28;43858;-83
2023/12/19 18:58:46;;;;;;;;;;;16.80;49.10;;;;;;5061395;28;42918;-90
2023/12/19 19:01:12;;;;;;;;;;;16.80;49.10;;;;;;5060866;28;44473;-82
2023/12/19 19:03:41;;;;;;;;;;;16.70;49.10;;;;;;5045908;28;43038;-80
2023/12/19 19:06:06;;;;;;;;;;;15.60;49.10;;;;;;5062530;28;43571;-80
2023/12/19 19:08:32;;;;;;;;;;;16.80;49.30;;;;;;5063853;28;42978;-79
2023/12/19 19:10:58;;;;;;;;;;;16.70;49.20;;;;;;5061517;28;43214;-81
2023/12/19 19:22:05;;;;;;;;;;;16.90;49.70;;;;;;5056777;28;42911;-79
2023/12/19 19:25:00;;;;;;;;;;;16.80;49.90;;;;;;5064852;28;43146;-81
2023/12/19 19:27:25;;;;;;;;;;;16.80;50.00;;;;;;5063064;28;43590;-81
2023/12/19 19:29:51;;;;;;;;;;;16.90;50.00;;;;;;5044298;28;43131;-80
2023/12/19 19:32:16;;;;;;;;;;;16.90;50.10;;;;;;5063429;28;43220;-79
2023/12/19 19:34:43;;;;;;;;;;;16.90;50.20;;;;;;5063167;28;43027;-80
2023/12/19 19:37:10;;;;;;;;;;;;;;;;;;5062915;28;43707;-80
2023/12/19 19:39:36;;;;;;;;;;;16.90;50.60;;;;;;5063114;28;42933;-79
2023/12/19 19:42:01;;;;;;;;;;;16.50;50.40;;;;;;5063359;28;43902;-80
2023/12/19 19:44:27;;;;;;;;;;;17.00;50.70;;;;;;5063609;28;43053;-81
2023/12/19 19:46:52;;;;;;;;;;;16.90;50.30;;;;;;5061380;28;43156;-80
2023/12/19 19:49:18;;;;;;;;;;;16.90;50.60;;;;;;5060697;28;42962;-80
2023/12/19 19:51:47;;;;;;;;;;;16.80;49.80;;;;;;5135241;22;43631;-79
2023/12/19 19:54:13;;;;;;;;;;;;;;;;;;5313749;22;42997;-81
2023/12/19 19:56:47;;;;;;;;;;;17.00;50.10;;;;;;5058892;28;45594;-81
2023/12/19 19:59:38;;;;;;;;;;;16.90;50.10;;;;;;5060694;28;43056;-81
2023/12/19 20:02:07;;;;;;;;;;;17.00;50.20;;;;;;5063522;28;43541;-80
2023/12/19 20:04:32;;;;;;;;;;;16.80;50.20;;;;;;5066435;28;43183;-80
2023/12/19 20:09:45;;;;;;;;;;;16.80;49.80;;;;;;4982808;28;42951;-81
2023/12/19 20:12:10;;;;;;;;;;;17.10;50.20;;;;;;5054108;28;44461;-81
2023/12/19 20:14:36;;;;;;;;;;;16.90;50.30;;;;;;5066694;28;43041;-82
2023/12/19 20:17:03;;;;;;;;;;;17.00;50.40;;;;;;5067707;28;42997;-81
2023/12/19 20:19:29;;;;;;;;;;;16.80;50.30;;;;;;5064332;28;43049;-81
2023/12/19 20:21:55;;;;;;;;;;;17.00;50.60;;;;;;5066137;28;42841;-80
2023/12/19 20:24:20;;;;;;;;;;;17.00;50.90;;;;;;5066778;28;42956;-80
2023/12/19 20:26:45;;;;;;;;;;;17.00;51.00;;;;;;5070285;28;42859;-83